Terminal Aerodrome Forecast
Issued by NWS Charleston, SC

Home | Current Version | Previous Version | Text Only | Print | Product List | Glossary On
Versions: 1 2 3 4 5 6 7 8 9 10 11 12 13 14 15 16 17 18 19 20 21 22 23 24 25 26 27 28 29 30 31 32 33 34 35 36 37
236
FTUS42 KCHS 310534
TAFCHS
TAF
KCHS 310534Z 3106/0106 30005KT P6SM BKN005 BKN060
     FM311330 33007KT P6SM BKN015
     FM311530 32007KT P6SM VCSH BKN035
     FM311800 33007KT P6SM VCSH SCT030 BKN050=

USA.gov is the U.S. government's official web portal to all federal, state and local government web resources and services.